createdAt,value
2018-09-24T00:03:05.772Z,10.00
2018-09-24T00:08:00.353Z,10.10
2018-09-24T00:12:55.699Z,10.10
2018-09-24T00:17:52.176Z,10.10
2018-09-24T00:22:47.000Z,10.20
2018-09-24T00:27:41.883Z,10.20
2018-09-24T00:32:37.855Z,10.20
2018-09-24T00:37:32.537Z,10.20
2018-09-24T00:42:27.794Z,10.10
2018-09-24T00:47:22.458Z,10.10
2018-09-24T00:52:17.203Z,10.20
2018-09-24T00:57:13.146Z,10.20
2018-09-24T01:02:07.646Z,10.30
2018-09-24T01:07:05.203Z,10.30
2018-09-24T01:11:59.813Z,10.30
2018-09-24T01:16:55.470Z,10.40
2018-09-24T01:21:49.432Z,10.40
2018-09-24T01:26:44.433Z,10.30
2018-09-24T01:31:39.400Z,10.40
2018-09-24T01:36:34.697Z,10.30
2018-09-24T01:41:29.365Z,10.40
2018-09-24T01:46:24.420Z,10.40
2018-09-24T01:51:19.761Z,10.40
2018-09-24T01:56:14.851Z,10.40
2018-09-24T02:01:09.940Z,10.40
2018-09-24T02:06:06.050Z,10.40
2018-09-24T02:11:00.314Z,10.40
2018-09-24T02:15:56.690Z,10.40
2018-09-24T02:20:52.599Z,10.40
2018-09-24T02:25:47.742Z,10.40
2018-09-24T02:30:41.836Z,10.40
2018-09-24T02:35:37.353Z,10.40
2018-09-24T02:40:33.143Z,10.40
2018-09-24T02:45:29.760Z,10.40
2018-09-24T02:50:33.884Z,10.40
2018-09-24T02:55:29.045Z,10.20
2018-09-24T03:00:24.105Z,10.10
2018-09-24T03:05:19.170Z,10.00
2018-09-24T03:10:13.954Z,10.00
2018-09-24T03:15:07.898Z,10.10
2018-09-24T03:20:06.742Z,10.10
2018-09-24T03:25:00.835Z,10.20
2018-09-24T03:29:56.269Z,10.20
2018-09-24T03:34:51.280Z,10.00
2018-09-24T03:39:53.092Z,10.00
2018-09-24T03:45:08.061Z,10.10
2018-09-24T03:50:03.727Z,10.10
2018-09-24T03:54:59.333Z,10.00
2018-09-24T03:59:53.639Z,10.10
2018-09-24T04:05:00.664Z,10.10
2018-09-24T04:10:00.979Z,10.10
2018-09-24T04:15:10.518Z,10.10
2018-09-24T04:20:11.800Z,10.00
2018-09-24T04:25:11.217Z,10.00
2018-09-24T04:30:11.499Z,10.00
2018-09-24T04:35:12.502Z,10.00
2018-09-24T04:40:12.335Z,10.10
2018-09-24T04:45:14.634Z,10.20
2018-09-24T04:50:16.328Z,10.20
2018-09-24T04:55:16.734Z,10.20
2018-09-24T05:00:16.789Z,10.30
2018-09-24T05:05:17.401Z,10.30
2018-09-24T05:10:16.804Z,10.30
2018-09-24T05:15:17.756Z,10.30
2018-09-24T05:20:17.737Z,10.20
2018-09-24T05:25:18.436Z,10.30
2018-09-24T05:30:19.823Z,10.30
2018-09-24T05:35:19.569Z,10.30
2018-09-24T05:40:18.944Z,10.40
2018-09-24T05:45:18.101Z,10.40
2018-09-24T05:50:19.571Z,10.40
2018-09-24T05:55:19.313Z,10.40
2018-09-24T06:00:19.024Z,10.50
2018-09-24T06:05:20.610Z,10.70
2018-09-24T06:10:20.506Z,10.70
2018-09-24T06:15:23.321Z,10.80
2018-09-24T06:20:23.489Z,11.00
2018-09-24T06:25:23.874Z,11.20
2018-09-24T06:30:24.177Z,11.50
2018-09-24T06:35:26.578Z,11.40
2018-09-24T06:40:29.349Z,11.60
2018-09-24T06:45:29.800Z,11.70
2018-09-24T06:50:31.795Z,11.80
2018-09-24T06:55:32.902Z,11.70
2018-09-24T07:00:32.433Z,11.90
2018-09-24T07:05:32.795Z,11.80
2018-09-24T07:10:32.548Z,11.80
2018-09-24T07:15:31.755Z,11.80
2018-09-24T07:20:34.837Z,11.90
2018-09-24T07:25:40.542Z,12.70
2018-09-24T07:30:41.123Z,13.10
2018-09-24T07:35:48.170Z,12.90
2018-09-24T07:40:48.401Z,12.90
2018-09-24T07:45:48.782Z,12.90
2018-09-24T07:51:11.948Z,13.40
2018-09-24T07:56:12.023Z,13.50
2018-09-24T08:01:14.213Z,13.30
2018-09-24T08:06:14.752Z,14.20
2018-09-24T08:11:15.481Z,14.10
2018-09-24T08:16:17.808Z,13.90
2018-09-24T08:21:18.976Z,14.00
2018-09-24T08:26:19.040Z,13.90
2018-09-24T08:31:19.449Z,14.80
2018-09-24T08:36:21.274Z,15.10
2018-09-24T08:41:21.546Z,15.30
2018-09-24T08:46:29.980Z,15.00
2018-09-24T08:51:31.236Z,15.60
2018-09-24T08:56:31.708Z,16.30
2018-09-24T09:01:33.655Z,16.10
2018-09-24T09:06:42.919Z,16.00
2018-09-24T09:11:50.657Z,16.20
2018-09-24T09:16:59.767Z,15.70
2018-09-24T09:21:59.036Z,15.00
2018-09-24T09:27:01.259Z,15.60
2018-09-24T09:32:05.528Z,16.40
2018-09-24T09:37:13.523Z,20.30
2018-09-24T09:42:22.355Z,20.40
2018-09-24T09:47:23.370Z,18.00
2018-09-24T09:52:24.555Z,19.20
2018-09-24T09:57:39.462Z,19.30
2018-09-24T10:02:55.433Z,19.80
2018-09-24T10:07:56.500Z,23.70
2018-09-24T10:13:00.433Z,24.20
2018-09-24T10:18:04.867Z,23.30
2018-09-24T10:23:07.682Z,21.90
2018-09-24T10:28:08.010Z,19.90
2018-09-24T10:33:07.975Z,21.00
2018-09-24T10:38:11.341Z,18.70
2018-09-24T10:43:12.294Z,19.30
2018-09-24T10:48:12.588Z,24.80
2018-09-24T10:53:13.370Z,27.40
2018-09-24T10:58:13.498Z,28.70
2018-09-24T11:03:13.880Z,27.60
2018-09-24T11:08:14.287Z,24.50
2018-09-24T11:13:14.433Z,22.30
2018-09-24T11:18:15.872Z,19.60
2018-09-24T11:23:16.153Z,19.60
2018-09-24T11:28:16.448Z,19.90
2018-09-24T11:33:16.696Z,18.50
2018-09-24T11:38:19.132Z,17.80
2018-09-24T11:43:20.859Z,17.40
2018-09-24T11:48:21.612Z,16.40
2018-09-24T11:53:32.001Z,16.00
2018-09-24T11:58:33.118Z,16.10
2018-09-24T12:03:48.462Z,16.10
2018-09-24T12:08:49.538Z,16.10
2018-09-24T12:13:50.750Z,16.50
2018-09-24T12:18:50.719Z,17.10
2018-09-24T12:23:50.649Z,16.60
2018-09-24T12:28:50.609Z,17.00
2018-09-24T12:33:52.412Z,16.90
2018-09-24T12:38:53.101Z,16.80
2018-09-24T12:43:53.573Z,16.60
2018-09-24T12:48:54.242Z,16.70
2018-09-24T12:53:53.910Z,16.70
2018-09-24T12:58:53.243Z,16.60
2018-09-24T13:03:53.803Z,16.60
2018-09-24T13:09:13.284Z,16.30
2018-09-24T13:14:13.420Z,16.50
2018-09-24T13:19:15.174Z,16.80
2018-09-24T13:24:14.741Z,16.90
2018-09-24T13:29:22.151Z,16.80
2018-09-24T13:34:21.765Z,16.30
2018-09-24T13:39:21.067Z,15.50
2018-09-24T13:44:21.400Z,15.30
2018-09-24T13:49:29.583Z,15.20
2018-09-24T13:54:30.001Z,15.40
2018-09-24T13:59:29.957Z,15.30
2018-09-24T14:04:31.281Z,15.60
2018-09-24T14:09:31.090Z,15.60
2018-09-24T14:14:46.209Z,15.90
2018-09-24T14:19:46.642Z,16.30
2018-09-24T14:24:47.025Z,16.30
2018-09-24T14:29:46.161Z,16.20
2018-09-24T14:34:46.391Z,15.90
2018-09-24T14:39:46.472Z,15.60
2018-09-24T14:44:46.274Z,15.50
2018-09-24T14:49:45.537Z,15.30
2018-09-24T14:54:44.819Z,15.00
2018-09-24T14:59:45.875Z,15.00
2018-09-24T15:04:45.051Z,15.00
2018-09-24T15:09:54.201Z,15.10
2018-09-24T15:15:02.570Z,15.00
2018-09-24T15:20:14.235Z,14.80
2018-09-24T15:25:14.552Z,14.60
2018-09-24T15:30:15.229Z,14.40
2018-09-24T15:35:15.489Z,14.10
2018-09-24T15:40:16.850Z,13.90
2018-09-24T15:45:16.571Z,13.60
2018-09-24T15:50:18.368Z,13.30
2018-09-24T15:55:17.703Z,13.10
2018-09-24T16:00:17.443Z,13.10
2018-09-24T16:05:18.424Z,13.20
2018-09-24T16:10:20.693Z,13.20
2018-09-24T16:15:19.852Z,13.20
2018-09-24T16:20:20.744Z,13.20
2018-09-24T16:25:22.011Z,13.10
2018-09-24T16:30:22.824Z,12.80
2018-09-24T16:35:22.812Z,12.50
2018-09-24T16:40:23.350Z,12.40
2018-09-24T16:45:23.111Z,12.20
2018-09-24T16:50:23.115Z,11.90
2018-09-24T16:55:25.221Z,11.80
2018-09-24T17:00:26.546Z,11.60
2018-09-24T17:05:26.649Z,11.50
2018-09-24T17:10:26.587Z,11.30
2018-09-24T17:33:06.551Z,10.70
2018-09-24T17:38:17.630Z,10.60
2018-09-24T17:43:24.907Z,10.50
2018-09-24T17:48:25.795Z,10.50
2018-09-24T17:53:25.600Z,10.40
2018-09-24T17:58:25.359Z,10.40
2018-09-24T18:03:26.419Z,10.30
2018-09-24T18:08:26.668Z,10.20
2018-09-24T18:13:27.416Z,10.20
2018-09-24T18:18:29.369Z,10.10
2018-09-24T18:23:30.003Z,10.10
2018-09-24T18:28:29.981Z,10.00
2018-09-24T18:33:29.775Z,10.00
2018-09-24T18:38:45.109Z,10.00
2018-09-24T18:43:59.290Z,10.10
2018-09-24T18:48:59.150Z,10.10
2018-09-24T18:53:58.686Z,10.20
2018-09-24T18:58:58.712Z,10.20
2018-09-24T19:03:58.514Z,10.30
2018-09-24T19:08:58.531Z,10.30
2018-09-24T19:14:01.546Z,10.30
2018-09-24T19:19:12.319Z,10.20
2018-09-24T19:24:13.890Z,10.10
2018-09-24T19:29:23.550Z,10.00
2018-09-24T19:34:25.069Z,10.00
2018-09-24T19:39:26.137Z,9.90
2018-09-24T19:44:26.593Z,9.80
2018-09-24T20:21:23.383Z,9.70
